createdAt,value
2023-04-17T00:02:04.144Z,2.08
2023-04-17T00:05:08.214Z,2.10
2023-04-17T00:08:09.861Z,2.20
2023-04-17T00:11:11.361Z,2.22
2023-04-17T00:14:12.953Z,2.15
2023-04-17T00:17:14.421Z,2.20
2023-04-17T00:20:15.995Z,2.10
2023-04-17T00:23:17.549Z,2.20
2023-04-17T00:26:19.594Z,2.30
2023-04-17T00:29:21.181Z,2.10
2023-04-17T00:32:22.883Z,2.33
2023-04-17T00:35:24.401Z,2.55
2023-04-17T00:38:26.123Z,2.10
2023-04-17T00:41:27.721Z,2.13
2023-04-17T00:44:29.582Z,2.22
2023-04-17T00:47:31.082Z,2.00
2023-04-17T00:50:33.600Z,2.33
2023-04-17T00:53:35.940Z,2.10
2023-04-17T00:56:38.558Z,2.20
2023-04-17T00:59:40.285Z,2.22
2023-04-17T01:02:41.881Z,2.00
2023-04-17T01:05:50.026Z,2.05
2023-04-17T01:08:51.612Z,2.33
2023-04-17T01:11:53.216Z,2.03
2023-04-17T01:14:56.596Z,2.25
2023-04-17T01:17:58.611Z,2.45
2023-04-17T01:21:01.375Z,2.35
2023-04-17T01:24:03.377Z,2.05
2023-04-17T01:27:06.894Z,2.00
2023-04-17T01:30:09.278Z,2.20
2023-04-17T01:33:17.945Z,2.10
2023-04-17T01:36:19.607Z,2.10
2023-04-17T01:39:21.624Z,2.10
2023-04-17T01:42:23.270Z,2.10
2023-04-17T01:45:24.791Z,2.05
2023-04-17T01:48:26.307Z,2.10
2023-04-17T01:51:27.923Z,2.00
2023-04-17T01:54:29.744Z,2.00
2023-04-17T01:57:33.103Z,2.10
2023-04-17T02:00:34.693Z,2.00
2023-04-17T02:03:36.444Z,2.00
2023-04-17T02:06:38.057Z,2.28
2023-04-17T02:09:39.591Z,2.00
2023-04-17T02:12:42.396Z,1.95
2023-04-17T02:15:44.518Z,2.00
2023-04-17T02:18:48.636Z,2.10
2023-04-17T02:21:50.115Z,2.13
2023-04-17T02:24:51.605Z,2.20
2023-04-17T02:27:56.109Z,2.28
2023-04-17T02:30:59.022Z,2.10
2023-04-17T02:34:00.625Z,2.17
2023-04-17T02:37:02.406Z,2.10
2023-04-17T02:40:07.282Z,2.30
2023-04-17T02:43:08.845Z,2.10
2023-04-17T02:46:11.197Z,2.17
2023-04-17T02:49:12.875Z,2.08
2023-04-17T02:52:14.660Z,2.00
2023-04-17T02:55:16.786Z,2.10
2023-04-17T02:58:18.480Z,2.20
2023-04-17T03:01:20.079Z,2.13
2023-04-17T03:04:22.011Z,2.40
2023-04-17T03:07:23.799Z,2.10
2023-04-17T03:10:25.698Z,1.85
2023-04-17T03:13:27.410Z,1.83
2023-04-17T03:16:29.046Z,1.88
2023-04-17T03:19:34.496Z,1.90
2023-04-17T03:22:36.631Z,1.95
2023-04-17T03:25:39.816Z,1.90
2023-04-17T03:28:42.020Z,1.90
2023-04-17T03:31:43.527Z,1.90
2023-04-17T03:34:45.059Z,1.75
2023-04-17T03:37:46.678Z,1.90
2023-04-17T03:40:48.518Z,2.17
2023-04-17T03:43:50.206Z,1.80
2023-04-17T03:46:51.662Z,1.90
2023-04-17T03:49:53.515Z,1.98
2023-04-17T03:52:55.815Z,1.92
2023-04-17T03:55:59.604Z,1.98
2023-04-17T03:59:05.978Z,2.03
2023-04-17T04:05:15.086Z,2.17
2023-04-17T04:08:17.790Z,2.17
2023-04-17T04:11:23.810Z,2.22
2023-04-17T04:14:25.615Z,1.90
2023-04-17T04:17:27.192Z,2.00
2023-04-17T04:20:28.943Z,1.95
2023-04-17T04:23:45.469Z,2.05
2023-04-17T04:26:49.667Z,2.15
2023-04-17T04:29:51.999Z,2.03
2023-04-17T04:32:56.888Z,2.00
2023-04-17T04:36:01.374Z,1.92
2023-04-17T04:39:05.636Z,2.10
2023-04-17T04:42:11.059Z,1.90
2023-04-17T04:45:24.708Z,2.20
2023-04-17T04:48:28.706Z,2.20
2023-04-17T04:51:31.833Z,2.40
2023-04-17T04:54:33.520Z,2.00
2023-04-17T04:57:36.652Z,1.90
2023-04-17T05:00:39.048Z,2.08
2023-04-17T05:03:40.960Z,1.90
2023-04-17T05:06:44.779Z,1.90
2023-04-17T05:09:46.334Z,2.13
2023-04-17T05:12:50.204Z,1.95
2023-04-17T05:15:52.139Z,2.20
2023-04-17T05:18:58.988Z,1.88
2023-04-17T05:22:32.846Z,1.90
2023-04-17T05:25:43.112Z,2.03
2023-04-17T05:28:45.297Z,1.90
2023-04-17T05:31:51.804Z,2.05
2023-04-17T05:35:11.064Z,2.05
2023-04-17T05:38:14.175Z,2.38
2023-04-17T05:41:15.722Z,1.90
2023-04-17T05:44:18.909Z,1.98
2023-04-17T05:47:20.575Z,1.95
2023-04-17T05:50:22.108Z,2.00
2023-04-17T05:53:23.862Z,2.05
2023-04-17T05:56:30.023Z,1.90
2023-04-17T05:59:31.665Z,1.90
2023-04-17T06:02:34.268Z,1.77
2023-04-17T06:05:36.106Z,2.05
2023-04-17T06:08:38.087Z,1.90
2023-04-17T06:11:39.694Z,2.33
2023-04-17T06:14:41.558Z,2.03
2023-04-17T06:17:44.367Z,2.08
2023-04-17T06:20:46.359Z,1.88
2023-04-17T06:23:48.232Z,2.10
2023-04-17T06:26:51.659Z,1.90
2023-04-17T06:29:53.207Z,2.20
2023-04-17T06:32:55.143Z,1.90
2023-04-17T06:35:56.678Z,1.85
2023-04-17T06:39:05.681Z,2.00
2023-04-17T06:42:07.713Z,2.00
2023-04-17T06:45:13.821Z,2.00
2023-04-17T06:48:15.352Z,2.10
2023-04-17T06:51:20.595Z,1.90
2023-04-17T06:54:22.398Z,1.80
2023-04-17T06:57:24.011Z,1.80
2023-04-17T07:00:25.693Z,1.88
2023-04-17T07:03:27.278Z,2.22
2023-04-17T07:06:29.132Z,1.90
2023-04-17T07:09:30.633Z,2.10
2023-04-17T07:12:32.895Z,2.03
2023-04-17T07:15:34.403Z,1.90
2023-04-17T07:18:35.991Z,2.08
2023-04-17T07:21:37.717Z,2.00
2023-04-17T07:24:39.253Z,1.88
2023-04-17T07:27:40.749Z,2.10
2023-04-17T07:30:42.637Z,1.80
2023-04-17T07:33:44.276Z,1.92
2023-04-17T07:36:47.182Z,1.92
2023-04-17T07:39:50.240Z,2.00
2023-04-17T07:42:52.741Z,2.00
2023-04-17T07:45:55.535Z,1.90
2023-04-17T07:48:57.052Z,1.83
2023-04-17T07:51:58.605Z,2.00
2023-04-17T07:55:00.261Z,1.90
2023-04-17T07:58:03.749Z,2.05
2023-04-17T08:01:08.259Z,1.95
2023-04-17T08:04:10.113Z,1.75
2023-04-17T08:07:12.725Z,1.80
2023-04-17T08:10:14.424Z,2.00
2023-04-17T08:13:16.270Z,2.00
2023-04-17T08:16:17.816Z,1.70
2023-04-17T08:19:19.440Z,2.03
2023-04-17T08:22:24.044Z,2.08
2023-04-17T08:25:25.653Z,2.00
2023-04-17T08:28:27.220Z,2.03
2023-04-17T08:31:28.974Z,1.95
2023-04-17T08:34:31.968Z,2.30
2023-04-17T08:37:35.537Z,1.70
2023-04-17T08:40:37.720Z,1.90
2023-04-17T08:43:40.190Z,1.88
2023-04-17T08:46:42.094Z,1.92
2023-04-17T08:49:45.852Z,1.75
2023-04-17T08:52:49.277Z,1.90
2023-04-17T08:55:50.771Z,1.80
2023-04-17T08:58:52.335Z,1.83
2023-04-17T09:02:04.429Z,2.00
2023-04-17T09:05:18.790Z,2.00
2023-04-17T09:08:23.941Z,1.75
2023-04-17T09:11:26.267Z,1.92
2023-04-17T09:14:31.467Z,1.88
2023-04-17T09:17:37.791Z,1.90
2023-04-17T09:23:58.837Z,1.80
2023-04-17T09:27:27.330Z,1.88
2023-04-17T09:30:36.799Z,1.77
2023-04-17T09:33:55.856Z,1.85
2023-04-17T09:36:57.419Z,1.85
2023-04-17T09:40:00.635Z,1.80
2023-04-17T09:43:09.481Z,1.80
2023-04-17T09:46:11.498Z,2.00
2023-04-17T09:49:16.082Z,1.85
2023-04-17T09:52:18.404Z,1.83
2023-04-17T09:55:21.554Z,1.95
2023-04-17T09:58:23.390Z,1.77
2023-04-17T10:01:25.550Z,2.08
2023-04-17T10:04:29.178Z,1.70
2023-04-17T10:07:31.849Z,1.63
2023-04-17T10:10:34.808Z,1.92
2023-04-17T10:13:42.506Z,1.90
2023-04-17T10:16:44.437Z,2.10
2023-04-17T10:19:49.107Z,2.08
2023-04-17T10:22:54.849Z,1.90
2023-04-17T10:26:25.281Z,1.98
2023-04-17T10:30:12.931Z,2.00
2023-04-17T10:33:15.744Z,1.90
2023-04-17T10:36:39.308Z,1.70
2023-04-17T10:39:51.978Z,1.75
2023-04-17T10:43:04.279Z,1.70
2023-04-17T10:46:10.185Z,2.10
2023-04-17T10:49:14.293Z,1.95
2023-04-17T10:52:41.345Z,1.75
2023-04-17T10:55:52.364Z,1.90
2023-04-17T10:59:01.093Z,1.95
2023-04-17T11:02:04.869Z,2.08
2023-04-17T11:05:07.660Z,1.90
2023-04-17T11:08:09.971Z,1.58
2023-04-17T11:11:14.591Z,1.70
2023-04-17T11:14:22.440Z,1.90
2023-04-17T11:17:24.036Z,1.73
2023-04-17T11:20:27.955Z,1.77
2023-04-17T11:23:33.944Z,1.80
2023-04-17T11:26:48.117Z,1.75
2023-04-17T11:29:49.660Z,1.73
2023-04-17T11:32:52.513Z,1.80
2023-04-17T11:35:54.243Z,1.75
2023-04-17T11:38:57.126Z,1.77
2023-04-17T11:41:58.684Z,1.80
2023-04-17T11:45:06.702Z,1.92
2023-04-17T11:48:12.896Z,1.88
2023-04-17T11:51:18.013Z,1.75
2023-04-17T11:54:26.964Z,2.00
2023-04-17T11:57:28.491Z,1.67
2023-04-17T12:00:30.581Z,1.95
2023-04-17T12:03:35.720Z,1.80
2023-04-17T12:06:38.100Z,1.90
2023-04-17T12:09:39.633Z,1.80
2023-04-17T12:12:41.214Z,1.88
2023-04-17T12:15:42.771Z,1.80
2023-04-17T12:18:45.740Z,2.00
2023-04-17T12:21:51.950Z,1.80
2023-04-17T12:24:53.475Z,1.75
2023-04-17T12:27:56.985Z,1.95
2023-04-17T12:30:58.597Z,1.90
2023-04-17T12:34:00.279Z,1.73
2023-04-17T12:37:01.759Z,1.65
2023-04-17T12:40:04.005Z,1.70
2023-04-17T12:43:06.586Z,2.00
2023-04-17T12:46:08.171Z,2.00
2023-04-17T12:49:10.131Z,2.30
2023-04-17T12:52:11.784Z,1.90
2023-04-17T12:55:13.395Z,2.10
2023-04-17T12:58:15.163Z,2.30
2023-04-17T13:01:16.742Z,1.80
2023-04-17T13:04:18.975Z,1.80
2023-04-17T13:07:20.847Z,1.70
2023-04-17T13:10:22.471Z,1.90
2023-04-17T13:13:23.974Z,1.80
2023-04-17T13:16:26.040Z,1.80
2023-04-17T13:19:27.549Z,2.03
2023-04-17T13:22:29.015Z,2.67
2023-04-17T13:25:31.484Z,1.92
2023-04-17T13:28:32.976Z,1.90
2023-04-17T13:31:34.757Z,1.70
2023-04-17T13:34:36.279Z,1.77
2023-04-17T13:37:37.766Z,2.00
2023-04-17T13:40:40.745Z,2.00
2023-04-17T13:43:42.218Z,1.90
2023-04-17T13:46:44.179Z,2.00
2023-04-17T13:49:45.810Z,1.77
2023-04-17T13:52:47.292Z,2.05
2023-04-17T13:55:49.269Z,1.90
2023-04-17T13:58:52.175Z,1.92
2023-04-17T14:01:53.877Z,1.73
2023-04-17T14:04:55.489Z,1.90
2023-04-17T14:07:57.079Z,1.90
2023-04-17T14:10:58.611Z,2.15
2023-04-17T14:14:00.220Z,1.80
2023-04-17T14:17:01.839Z,2.00
2023-04-17T14:20:04.032Z,1.90
2023-04-17T14:23:05.488Z,1.50
2023-04-17T14:26:07.618Z,1.70
2023-04-17T14:29:10.622Z,1.75
2023-04-17T14:32:12.532Z,1.80
2023-04-17T14:35:14.033Z,2.10
2023-04-17T14:38:15.540Z,2.17
2023-04-17T14:41:17.442Z,1.90
2023-04-17T14:44:20.295Z,1.98
2023-04-17T14:47:21.840Z,1.70
2023-04-17T14:50:23.381Z,1.67
2023-04-17T14:53:24.833Z,1.80
2023-04-17T14:56:26.453Z,2.00
2023-04-17T14:59:28.420Z,1.83
2023-04-17T15:02:38.038Z,1.70
2023-04-17T15:05:39.835Z,1.77
2023-04-17T15:08:41.554Z,1.67
2023-04-17T15:11:43.075Z,2.13
2023-04-17T15:14:45.030Z,1.70
2023-04-17T15:17:46.516Z,1.80
2023-04-17T15:20:48.166Z,1.60
2023-04-17T15:23:49.653Z,1.90
2023-04-17T15:26:51.226Z,2.00
2023-04-17T15:29:52.744Z,1.70
2023-04-17T15:32:54.315Z,1.90
2023-04-17T15:35:58.098Z,1.90
2023-04-17T15:39:00.746Z,1.80
2023-04-17T15:42:02.355Z,1.83
2023-04-17T15:45:04.444Z,1.70
2023-04-17T15:48:06.096Z,1.83
2023-04-17T15:51:07.910Z,2.08
2023-04-17T15:54:11.712Z,1.73
2023-04-17T15:57:13.264Z,1.60
2023-04-17T16:00:15.275Z,1.90
2023-04-17T16:03:16.946Z,2.40
2023-04-17T16:06:20.366Z,2.53
2023-04-17T16:09:24.289Z,2.30
2023-04-17T16:12:27.981Z,2.35
2023-04-17T16:15:30.378Z,2.58
2023-04-17T16:18:31.831Z,2.58
2023-04-17T16:21:33.350Z,2.53
2023-04-17T16:24:34.804Z,2.60
2023-04-17T16:27:37.014Z,3.00
2023-04-17T16:30:38.589Z,2.78
2023-04-17T16:33:40.675Z,2.90
2023-04-17T16:36:45.380Z,2.67
2023-04-17T16:39:47.217Z,2.90
2023-04-17T16:42:48.762Z,2.80
2023-04-17T16:45:50.300Z,2.78
2023-04-17T16:48:51.854Z,3.10
2023-04-17T16:51:53.843Z,2.70
2023-04-17T16:54:55.300Z,2.90
2023-04-17T16:57:59.894Z,2.70
2023-04-17T17:01:01.502Z,3.00
2023-04-17T17:04:03.076Z,2.63
2023-04-17T17:07:04.780Z,3.10
2023-04-17T17:10:07.166Z,2.90
2023-04-17T17:13:08.698Z,2.80
2023-04-17T17:16:10.239Z,2.97
2023-04-17T17:19:11.896Z,2.72
2023-04-17T17:22:13.505Z,2.80
2023-04-17T17:25:14.979Z,3.00
2023-04-17T17:28:16.501Z,2.90
2023-04-17T17:31:18.214Z,2.80
2023-04-17T17:34:26.542Z,2.90
2023-04-17T17:37:28.656Z,2.67
2023-04-17T17:40:30.292Z,2.88
2023-04-17T17:43:31.767Z,2.70
2023-04-17T17:46:35.684Z,2.55
2023-04-17T17:49:37.356Z,2.85
2023-04-17T17:52:38.852Z,2.58
2023-04-17T17:55:40.422Z,2.72
2023-04-17T17:58:41.901Z,2.63
2023-04-17T18:01:43.482Z,2.88
2023-04-17T18:04:45.116Z,2.50
2023-04-17T18:07:46.612Z,2.83
2023-04-17T18:10:48.125Z,2.60
2023-04-17T18:13:49.639Z,2.60
2023-04-17T18:16:51.291Z,2.50
2023-04-17T18:19:52.814Z,2.75
2023-04-17T18:22:54.314Z,2.90
2023-04-17T18:25:57.743Z,2.60
2023-04-17T18:28:59.328Z,2.60
2023-04-17T18:32:00.821Z,2.90
2023-04-17T18:35:02.803Z,2.72
2023-04-17T18:38:04.324Z,3.00
2023-04-17T18:41:05.805Z,2.80
2023-04-17T18:44:07.304Z,2.40
2023-04-17T18:47:08.774Z,2.50
2023-04-17T18:50:11.332Z,2.75
2023-04-17T18:53:12.926Z,2.55
2023-04-17T18:56:15.091Z,2.80
2023-04-17T18:59:16.785Z,2.88
2023-04-17T19:02:18.287Z,2.85
2023-04-17T19:05:21.309Z,3.00
2023-04-17T19:08:22.822Z,2.70
2023-04-17T19:11:24.595Z,2.80
2023-04-17T19:14:26.131Z,3.00
2023-04-17T19:17:27.640Z,2.75
2023-04-17T19:20:29.110Z,2.80
2023-04-17T19:23:30.908Z,2.97
2023-04-17T19:26:32.421Z,2.88
2023-04-17T19:29:33.876Z,2.65
2023-04-17T19:32:35.468Z,3.03
2023-04-17T19:35:37.122Z,2.95
2023-04-17T19:38:38.608Z,2.75
2023-04-17T19:41:40.087Z,2.75
2023-04-17T19:44:41.529Z,2.60
2023-04-17T19:47:43.025Z,2.55
2023-04-17T19:50:44.590Z,2.85
2023-04-17T19:53:47.654Z,2.28
2023-04-17T19:56:49.507Z,2.75
2023-04-17T19:59:50.969Z,2.78
2023-04-17T20:02:52.503Z,2.63
2023-04-17T20:05:54.831Z,2.33
2023-04-17T20:08:58.342Z,2.50
2023-04-17T20:11:59.972Z,2.40
2023-04-17T20:15:01.456Z,2.47
2023-04-17T20:18:03.073Z,2.50
2023-04-17T20:21:05.786Z,2.50
2023-04-17T20:24:07.335Z,2.70
2023-04-17T20:27:08.766Z,2.60
2023-04-17T20:30:14.375Z,2.78
2023-04-17T20:33:15.904Z,2.33
2023-04-17T20:36:17.480Z,2.35
2023-04-17T20:39:19.002Z,2.35
2023-04-17T20:42:20.617Z,2.60
2023-04-17T20:45:22.086Z,2.45
2023-04-17T20:48:24.997Z,2.47
2023-04-17T20:51:27.235Z,2.33
2023-04-17T20:54:29.338Z,2.15
2023-04-17T20:57:30.903Z,2.30
2023-04-17T21:00:33.693Z,2.40
2023-04-17T21:03:35.345Z,2.00
2023-04-17T21:06:36.816Z,2.45
2023-04-17T21:09:38.250Z,2.75
2023-04-17T21:12:39.721Z,2.20
2023-04-17T21:15:42.187Z,2.30
2023-04-17T21:18:43.652Z,2.30
2023-04-17T21:21:45.138Z,2.22
2023-04-17T21:24:46.589Z,2.10
2023-04-17T21:27:48.153Z,2.40
2023-04-17T21:30:49.608Z,2.17
2023-04-17T21:33:51.223Z,2.53
2023-04-17T21:36:55.881Z,1.88
2023-04-17T21:39:57.506Z,2.15
2023-04-17T21:43:00.527Z,2.30
2023-04-17T21:46:02.210Z,2.17
2023-04-17T21:49:04.254Z,2.30
2023-04-17T21:52:05.697Z,2.10
2023-04-17T21:55:07.731Z,2.08
2023-04-17T21:58:09.209Z,2.28
2023-04-17T22:01:10.840Z,2.10
2023-04-17T22:04:12.689Z,2.17
2023-04-17T22:07:14.345Z,2.05
2023-04-17T22:10:15.827Z,2.20
2023-04-17T22:13:17.446Z,1.98
2023-04-17T22:16:18.980Z,2.13
2023-04-17T22:19:20.631Z,2.00
2023-04-17T22:22:22.086Z,1.77
2023-04-17T22:25:23.615Z,1.80
2023-04-17T22:28:28.122Z,1.90
2023-04-17T22:31:29.753Z,2.13
2023-04-17T22:34:31.328Z,1.83
2023-04-17T22:37:32.784Z,1.90
2023-04-17T22:40:34.846Z,1.75
2023-04-17T22:43:36.383Z,1.70
2023-04-17T22:46:38.077Z,1.90
2023-04-17T22:49:40.551Z,2.00
2023-04-17T22:52:42.082Z,1.70
2023-04-17T22:55:43.558Z,1.90
2023-04-17T22:58:45.050Z,2.03
2023-04-17T23:01:46.592Z,2.05
2023-04-17T23:04:48.153Z,1.80
2023-04-17T23:07:49.746Z,1.67
2023-04-17T23:10:59.590Z,1.70
2023-04-17T23:14:01.783Z,1.73
2023-04-17T23:17:03.266Z,1.60
2023-04-17T23:20:05.439Z,1.58
2023-04-17T23:23:06.927Z,1.70
2023-04-17T23:26:08.634Z,1.90
2023-04-17T23:29:10.128Z,1.70
2023-04-17T23:32:11.726Z,1.70
2023-04-17T23:35:13.574Z,1.70
2023-04-17T23:38:15.213Z,1.83
2023-04-17T23:41:16.702Z,1.70
2023-04-17T23:44:18.176Z,1.65
2023-04-17T23:47:19.649Z,1.65
2023-04-17T23:50:21.220Z,1.70
2023-04-17T23:53:22.783Z,1.67
2023-04-17T23:56:24.254Z,1.60
2023-04-17T23:59:25.763Z,1.70
